Time;durP1;ratioP1;P1;durP2;ratioP2;P2;SDS_P1;SDS_P2;PMS_P1;PMS_P2;Temp;Humidity;BMP_temperature;BMP_pressure;BME280_temperature;BME280_humidity;BME280_pressure;Samples;Min_cycle;Max_cycle;Signal;HPM_P1;HPM_P2
2022/06/09 00:00:11;;;;;;;2.63;1.80;;;;;;;;;;5012978;28;20029;-76
2022/06/09 00:02:39;;;;;;;2.53;2.00;;;;;;;;;;4995255;28;20065;-76
2022/06/09 00:05:06;;;;;;;2.42;1.80;;;;;;;;;;5012894;28;20025;-77
2022/06/09 00:07:32;;;;;;;5.90;1.92;;;;;;;;;;5015122;28;20125;-77
2022/06/09 00:10:05;;;;;;;4.22;2.00;;;;;;;;;;5016705;28;20522;-77
2022/06/09 00:12:31;;;;;;;6.70;1.83;;;;;;;;;;5016853;28;20401;-77
2022/06/09 00:14:57;;;;;;;5.40;1.85;;;;;;;;;;5016779;28;20037;-77
2022/06/09 00:17:23;;;;;;;4.03;1.88;;;;;;;;;;5016342;28;20053;-76
2022/06/09 00:19:49;;;;;;;2.30;1.60;;;;;;;;;;5016704;28;20087;-78
2022/06/09 00:22:14;;;;;;;5.30;1.98;;;;;;;;;;5016317;28;20535;-77
2022/06/09 00:24:39;;;;;;;4.80;1.83;;;;;;;;;;5016441;28;20026;-77
2022/06/09 00:27:04;;;;;;;2.43;1.93;;;;;;;;;;5016218;28;20026;-77
2022/06/09 00:29:30;;;;;;;2.77;2.00;;;;;;;;;;5016549;28;20259;-77
2022/06/09 00:31:55;;;;;;;2.25;1.98;;;;;;;;;;5016182;28;20255;-78
2022/06/09 00:34:20;;;;;;;2.47;2.05;;;;;;;;;;5016663;28;20076;-77
2022/06/09 00:36:45;;;;;;;3.05;1.90;;;;;;;;;;5016236;28;20017;-78
2022/06/09 00:39:11;;;;;;;4.20;2.00;;;;;;;;;;5016246;28;20403;-77
2022/06/09 00:41:41;;;;;;;3.63;2.33;;;;;;;;;;5015946;28;20299;-77
2022/06/09 00:44:21;;;;;;;7.93;2.90;;;;;;;;;;5016139;28;20022;-77
2022/06/09 00:46:52;;;;;;;3.63;2.03;;;;;;;;;;5016034;28;20041;-77
2022/06/09 00:49:24;;;;;;;3.22;1.85;;;;;;;;;;5016068;28;20026;-76
2022/06/09 00:51:54;;;;;;;5.18;1.70;;;;;;;;;;5015730;28;20080;-77
2022/06/09 00:54:28;;;;;;;2.10;1.40;;;;;;;;;;5015777;28;20112;-76
2022/06/09 00:56:57;;;;;;;2.53;1.38;;;;;;;;;;4998213;28;20026;-78
2022/06/09 00:59:26;;;;;;;2.25;1.30;;;;;;;;;;5015739;28;20034;-78
2022/06/09 01:01:52;;;;;;;3.35;1.38;;;;;;;;;;5015699;28;20021;-78
2022/06/09 01:04:20;;;;;;;4.47;1.35;;;;;;;;;;5015795;28;20029;-77
2022/06/09 01:06:52;;;;;;;2.67;1.45;;;;;;;;;;5015577;28;20029;-77
2022/06/09 01:09:22;;;;;;;4.13;1.40;;;;;;;;;;5015967;28;20022;-77
2022/06/09 01:11:49;;;;;;;3.83;1.42;;;;;;;;;;5015636;28;20091;-77
2022/06/09 01:14:18;;;;;;;6.35;1.30;;;;;;;;;;5016071;28;20463;-78
2022/06/09 01:17:11;;;;;;;3.00;1.30;;;;;;;;;;5015547;28;20036;-77
2022/06/09 01:19:49;;;;;;;2.50;1.23;;;;;;;;;;5015965;28;20092;-77
2022/06/09 01:22:36;;;;;;;4.05;1.42;;;;;;;;;;5015702;28;20255;-77
2022/06/09 01:25:35;;;;;;;2.88;1.35;;;;;;;;;;4997741;28;20021;-77
2022/06/09 01:28:20;;;;;;;1.42;1.20;;;;;;;;;;5015469;28;20084;-77
2022/06/09 01:30:54;;;;;;;2.08;1.42;;;;;;;;;;5015699;28;20033;-77
2022/06/09 01:33:41;;;;;;;3.55;1.40;;;;;;;;;;5015081;28;20034;-77
2022/06/09 01:36:22;;;;;;;1.95;1.20;;;;;;;;;;4997505;28;20032;-78
2022/06/09 01:38:52;;;;;;;2.85;1.30;;;;;;;;;;5014980;28;20116;-77
2022/06/09 01:41:19;;;;;;;2.33;1.30;;;;;;;;;;4997689;28;20076;-76
2022/06/09 01:43:46;;;;;;;1.83;1.27;;;;;;;;;;5014696;28;20034;-76
2022/06/09 01:46:20;;;;;;;5.78;1.30;;;;;;;;;;4997300;28;20390;-77
2022/06/09 01:48:48;;;;;;;3.63;1.20;;;;;;;;;;5015366;28;20021;-77
2022/06/09 01:51:16;;;;;;;4.63;1.48;;;;;;;;;;4997432;28;20371;-76
2022/06/09 01:53:57;;;;;;;2.67;1.30;;;;;;;;;;5014822;28;20022;-75
2022/06/09 01:56:35;;;;;;;1.92;1.30;;;;;;;;;;5015065;28;20039;-77
2022/06/09 01:59:14;;;;;;;2.65;1.33;;;;;;;;;;5015366;28;20107;-77
2022/06/09 02:01:43;;;;;;;3.63;1.27;;;;;;;;;;5015128;28;20033;-77
2022/06/09 02:04:17;;;;;;;2.10;1.20;;;;;;;;;;5014659;28;20026;-77
2022/06/09 02:06:43;;;;;;;4.45;1.40;;;;;;;;;;5014878;28;20040;-77
2022/06/09 02:09:09;;;;;;;3.60;1.10;;;;;;;;;;5014553;28;20071;-77
2022/06/09 02:11:53;;;;;;;1.75;1.17;;;;;;;;;;5014497;28;20395;-77
2022/06/09 02:14:20;;;;;;;1.88;1.30;;;;;;;;;;5014823;28;20479;-76
2022/06/09 02:16:45;;;;;;;2.75;1.25;;;;;;;;;;4996513;28;20120;-76
2022/06/09 02:19:11;;;;;;;4.70;1.20;;;;;;;;;;5014157;28;20398;-75
2022/06/09 02:21:37;;;;;;;3.78;1.02;;;;;;;;;;5014069;28;20018;-76
2022/06/09 02:24:03;;;;;;;3.80;1.27;;;;;;;;;;5014311;28;20104;-76
2022/06/09 02:26:28;;;;;;;4.03;1.20;;;;;;;;;;4996409;28;20491;-77
2022/06/09 02:28:54;;;;;;;6.38;1.30;;;;;;;;;;5013566;28;20064;-77
2022/06/09 02:31:21;;;;;;;2.22;1.00;;;;;;;;;;5013830;28;20026;-77
2022/06/09 02:33:48;;;;;;;1.83;1.10;;;;;;;;;;5013840;28;20029;-76
2022/06/09 02:36:13;;;;;;;2.10;1.10;;;;;;;;;;4996300;28;20120;-76
2022/06/09 02:38:39;;;;;;;2.00;1.10;;;;;;;;;;4996213;28;20558;-76
2022/06/09 02:41:04;;;;;;;2.08;1.23;;;;;;;;;;4996178;28;20026;-76
2022/06/09 02:43:30;;;;;;;4.45;1.13;;;;;;;;;;5014092;28;20104;-77
2022/06/09 02:45:56;;;;;;;2.63;1.10;;;;;;;;;;5013722;28;20483;-76
2022/06/09 02:48:22;;;;;;;4.70;1.02;;;;;;;;;;4996100;28;20445;-76
2022/06/09 02:50:48;;;;;;;2.22;0.95;;;;;;;;;;4996031;28;20490;-76
2022/06/09 02:53:15;;;;;;;2.67;1.33;;;;;;;;;;5013726;28;20159;-76
2022/06/09 02:55:40;;;;;;;3.97;1.00;;;;;;;;;;5013629;28;20392;-77
2022/06/09 02:58:05;;;;;;;2.20;1.23;;;;;;;;;;4996463;28;20021;-76
2022/06/09 03:00:31;;;;;;;2.55;1.15;;;;;;;;;;5013762;28;20026;-76
2022/06/09 03:03:03;;;;;;;2.78;1.10;;;;;;;;;;5013461;28;20442;-76
2022/06/09 03:05:31;;;;;;;3.33;1.00;;;;;;;;;;4995920;28;20419;-76
2022/06/09 03:07:56;;;;;;;2.95;0.85;;;;;;;;;;5013436;28;20033;-76
2022/06/09 03:10:23;;;;;;;1.23;0.77;;;;;;;;;;5013648;28;20080;-76
2022/06/09 03:12:48;;;;;;;3.40;1.20;;;;;;;;;;5013289;28;20465;-76
2022/06/09 03:15:17;;;;;;;2.97;1.10;;;;;;;;;;5013801;28;20104;-77
2022/06/09 03:17:42;;;;;;;2.47;1.00;;;;;;;;;;5013442;28;20106;-77
2022/06/09 03:20:13;;;;;;;3.00;0.90;;;;;;;;;;5013858;28;20029;-77
2022/06/09 03:22:38;;;;;;;2.47;1.00;;;;;;;;;;5013651;28;20026;-77
2022/06/09 03:25:04;;;;;;;3.67;1.00;;;;;;;;;;5013996;28;20538;-76
2022/06/09 03:27:29;;;;;;;2.42;0.90;;;;;;;;;;5013264;28;20050;-75
2022/06/09 03:29:54;;;;;;;0.95;0.80;;;;;;;;;;5013995;28;20037;-75
2022/06/09 03:32:21;;;;;;;2.67;0.90;;;;;;;;;;5013045;28;20136;-77
2022/06/09 03:34:47;;;;;;;1.65;0.90;;;;;;;;;;4995754;28;20320;-75
2022/06/09 03:37:12;;;;;;;3.33;1.10;;;;;;;;;;5013315;28;20018;-76
2022/06/09 03:39:38;;;;;;;1.70;0.80;;;;;;;;;;5013341;28;20737;-77
2022/06/09 03:42:04;;;;;;;2.05;1.10;;;;;;;;;;5014922;28;20727;-76
2022/06/09 03:44:29;;;;;;;3.72;1.10;;;;;;;;;;5017714;28;20022;-77
2022/06/09 03:46:55;;;;;;;4.83;1.03;;;;;;;;;;4999689;28;20032;-77
2022/06/09 03:49:20;;;;;;;3.20;1.10;;;;;;;;;;5016922;28;20259;-76
2022/06/09 03:51:45;;;;;;;3.03;1.13;;;;;;;;;;4999274;28;20026;-77
2022/06/09 03:54:11;;;;;;;1.83;0.80;;;;;;;;;;5017441;28;20038;-76
2022/06/09 03:56:36;;;;;;;1.30;0.90;;;;;;;;;;5016806;28;20267;-75
2022/06/09 03:59:02;;;;;;;2.95;1.02;;;;;;;;;;5016625;28;20393;-75
2022/06/09 04:01:27;;;;;;;4.93;1.00;;;;;;;;;;5016631;28;20030;-75
2022/06/09 04:03:52;;;;;;;1.27;0.80;;;;;;;;;;5016904;28;20033;-76
2022/06/09 04:06:21;;;;;;;2.87;1.23;;;;;;;;;;5016636;28;20262;-76
2022/06/09 04:08:48;;;;;;;1.27;0.85;;;;;;;;;;5016769;28;20255;-77
2022/06/09 04:11:15;;;;;;;4.85;1.10;;;;;;;;;;5016578;28;20475;-77
2022/06/09 04:13:41;;;;;;;2.00;0.90;;;;;;;;;;5016652;28;20466;-77
2022/06/09 04:16:20;;;;;;;6.40;1.10;;;;;;;;;;5016730;28;20021;-77
2022/06/09 04:18:45;;;;;;;3.88;1.10;;;;;;;;;;5017086;28;20530;-77
2022/06/09 04:21:11;;;;;;;2.63;0.93;;;;;;;;;;5017228;28;20037;-77
2022/06/09 04:23:36;;;;;;;1.40;1.00;;;;;;;;;;5016447;28;20263;-77
2022/06/09 04:26:02;;;;;;;3.08;1.00;;;;;;;;;;5016460;28;20093;-79
2022/06/09 04:28:27;;;;;;;2.42;0.90;;;;;;;;;;5016479;28;20022;-77
2022/06/09 04:30:53;;;;;;;3.47;1.20;;;;;;;;;;5016584;28;20028;-77
2022/06/09 04:33:18;;;;;;;1.70;0.93;;;;;;;;;;5016073;28;20354;-75
2022/06/09 04:35:43;;;;;;;2.27;0.90;;;;;;;;;;5016417;28;20294;-77
2022/06/09 04:38:10;;;;;;;1.60;0.97;;;;;;;;;;5016479;28;20283;-75
2022/06/09 04:40:38;;;;;;;1.60;1.00;;;;;;;;;;5015915;28;20798;-76
2022/06/09 04:43:05;;;;;;;2.50;1.10;;;;;;;;;;4998272;28;20041;-76
2022/06/09 04:45:31;;;;;;;5.00;0.90;;;;;;;;;;4998362;28;20061;-75
2022/06/09 04:47:56;;;;;;;3.13;1.08;;;;;;;;;;5015944;28;20472;-77
2022/06/09 04:50:21;;;;;;;2.75;0.93;;;;;;;;;;5015826;28;20036;-76
2022/06/09 04:52:47;;;;;;;3.92;1.10;;;;;;;;;;5015114;28;20029;-76
2022/06/09 04:55:13;;;;;;;5.95;1.10;;;;;;;;;;5015935;28;20045;-77
2022/06/09 04:57:39;;;;;;;1.65;1.00;;;;;;;;;;5015684;28;20022;-76
2022/06/09 05:00:06;;;;;;;3.53;1.10;;;;;;;;;;5016003;28;20026;-76
2022/06/09 05:02:31;;;;;;;1.88;1.10;;;;;;;;;;5015713;28;20125;-77
2022/06/09 05:04:56;;;;;;;3.78;0.98;;;;;;;;;;5016126;28;20452;-76
2022/06/09 05:07:22;;;;;;;3.35;1.00;;;;;;;;;;5015742;28;20467;-77
2022/06/09 05:09:48;;;;;;;3.13;1.23;;;;;;;;;;5015839;28;20101;-77
2022/06/09 05:12:13;;;;;;;1.10;0.80;;;;;;;;;;5015389;28;20057;-77
2022/06/09 05:14:38;;;;;;;2.93;1.00;;;;;;;;;;5015440;28;20286;-77
2022/06/09 05:17:03;;;;;;;0.80;0.80;;;;;;;;;;5015656;28;20267;-77
2022/06/09 05:19:29;;;;;;;2.10;0.95;;;;;;;;;;5015343;28;20255;-77
2022/06/09 05:21:54;;;;;;;4.05;1.10;;;;;;;;;;4997813;28;20072;-77
2022/06/09 05:24:20;;;;;;;4.33;1.03;;;;;;;;;;5015636;28;20029;-77
2022/06/09 05:26:45;;;;;;;1.92;0.90;;;;;;;;;;5015554;28;20355;-77
2022/06/09 05:29:10;;;;;;;3.17;0.97;;;;;;;;;;5015545;28;20021;-76
2022/06/09 05:31:36;;;;;;;8.30;1.40;;;;;;;;;;5015226;28;20271;-76
2022/06/09 05:34:02;;;;;;;3.42;1.10;;;;;;;;;;5015094;28;20262;-76
2022/06/09 05:36:27;;;;;;;3.08;1.10;;;;;;;;;;5015366;28;20391;-77
2022/06/09 05:47:04;;;;;;;2.65;1.00;;;;;;;;;;5014767;28;20041;-77
2022/06/09 05:49:32;;;;;;;2.88;1.10;;;;;;;;;;5014636;28;20026;-77
2022/06/09 05:51:58;;;;;;;3.38;0.95;;;;;;;;;;5014896;28;20037;-76
2022/06/09 05:54:23;;;;;;;2.65;0.90;;;;;;;;;;5014769;28;20017;-76
2022/06/09 05:56:49;;;;;;;3.03;1.10;;;;;;;;;;5014555;28;20049;-76
2022/06/09 05:59:14;;;;;;;2.30;1.00;;;;;;;;;;5014686;28;20438;-75
2022/06/09 06:01:40;;;;;;;2.17;0.93;;;;;;;;;;5014416;28;20030;-75
2022/06/09 06:04:07;;;;;;;2.65;1.10;;;;;;;;;;5013736;28;20414;-76
2022/06/09 06:06:36;;;;;;;5.47;1.20;;;;;;;;;;5014369;28;20034;-76
2022/06/09 06:09:04;;;;;;;1.27;0.80;;;;;;;;;;5014245;28;20451;-76
2022/06/09 06:11:29;;;;;;;6.93;1.08;;;;;;;;;;5014306;28;20048;-74
2022/06/09 06:13:55;;;;;;;3.88;1.00;;;;;;;;;;5014123;28;20105;-76
2022/06/09 06:16:22;;;;;;;1.65;0.90;;;;;;;;;;5014484;28;20059;-76
2022/06/09 06:18:47;;;;;;;1.75;0.90;;;;;;;;;;5014218;28;20029;-77
2022/06/09 06:21:16;;;;;;;2.38;0.75;;;;;;;;;;5014069;28;20021;-76
2022/06/09 06:23:45;;;;;;;3.35;1.17;;;;;;;;;;5014067;28;20072;-75
2022/06/09 06:26:11;;;;;;;3.40;1.00;;;;;;;;;;5014035;28;20447;-75
2022/06/09 06:28:36;;;;;;;1.80;0.90;;;;;;;;;;5013931;28;20018;-75
2022/06/09 06:31:02;;;;;;;2.08;0.88;;;;;;;;;;5014215;28;20022;-76
2022/06/09 06:33:27;;;;;;;1.23;0.82;;;;;;;;;;5013862;28;20399;-75
2022/06/09 06:35:53;;;;;;;2.23;1.00;;;;;;;;;;5014022;28;20471;-77
2022/06/09 06:38:18;;;;;;;1.98;0.90;;;;;;;;;;5014582;28;20736;-74
2022/06/09 06:40:43;;;;;;;2.50;1.00;;;;;;;;;;4996116;28;20479;-75
2022/06/09 06:43:09;;;;;;;1.80;1.00;;;;;;;;;;5013633;28;20029;-76
2022/06/09 06:45:34;;;;;;;2.10;1.00;;;;;;;;;;5013910;28;20255;-77
2022/06/09 06:47:59;;;;;;;3.53;1.00;;;;;;;;;;5013759;28;20017;-77
2022/06/09 06:50:25;;;;;;;2.40;1.20;;;;;;;;;;4995978;28;20260;-75
2022/06/09 06:52:50;;;;;;;2.83;1.00;;;;;;;;;;5013367;28;20485;-77
2022/06/09 06:55:17;;;;;;;13.25;1.77;;;;;;;;;;5013706;28;20047;-76
2022/06/09 06:57:43;;;;;;;4.07;0.98;;;;;;;;;;5013456;28;20033;-77
2022/06/09 07:00:11;;;;;;;1.77;1.10;;;;;;;;;;4995844;28;20026;-77
2022/06/09 07:02:37;;;;;;;1.88;0.90;;;;;;;;;;5013300;28;20075;-76
2022/06/09 07:05:03;;;;;;;2.25;1.00;;;;;;;;;;5013389;28;20113;-76
2022/06/09 07:07:28;;;;;;;2.78;1.10;;;;;;;;;;5013260;28;20022;-77
2022/06/09 07:09:53;;;;;;;4.28;0.80;;;;;;;;;;5013587;28;20100;-76
2022/06/09 07:12:18;;;;;;;1.53;0.80;;;;;;;;;;5013302;28;20068;-76
2022/06/09 07:14:44;;;;;;;2.78;1.00;;;;;;;;;;5013537;28;20342;-76
2022/06/09 07:17:09;;;;;;;2.22;1.20;;;;;;;;;;5012980;28;20029;-74
2022/06/09 07:19:34;;;;;;;1.60;0.90;;;;;;;;;;5013569;28;20423;-78
2022/06/09 07:22:00;;;;;;;3.57;1.10;;;;;;;;;;5012953;28;20026;-76
2022/06/09 07:24:25;;;;;;;2.72;0.85;;;;;;;;;;5013547;28;20252;-77
2022/06/09 07:26:52;;;;;;;3.97;1.02;;;;;;;;;;4995934;28;20088;-76
2022/06/09 07:29:18;;;;;;;1.58;0.85;;;;;;;;;;5013479;28;20022;-75
2022/06/09 07:31:43;;;;;;;4.10;1.00;;;;;;;;;;5013177;28;20501;-76
2022/06/09 07:34:09;;;;;;;2.75;1.00;;;;;;;;;;5012965;28;20044;-76
2022/06/09 07:36:34;;;;;;;1.93;1.10;;;;;;;;;;5012978;28;20030;-75
2022/06/09 07:39:00;;;;;;;2.55;0.88;;;;;;;;;;4996066;28;20311;-75
2022/06/09 07:41:25;;;;;;;1.80;1.02;;;;;;;;;;5013359;28;20026;-76
2022/06/09 07:43:51;;;;;;;1.60;0.98;;;;;;;;;;5013032;28;20034;-77
2022/06/09 07:46:17;;;;;;;2.33;0.93;;;;;;;;;;5013437;28;20471;-76
2022/06/09 07:48:45;;;;;;;1.92;0.80;;;;;;;;;;5012921;28;20113;-77
2022/06/09 07:51:10;;;;;;;2.60;1.17;;;;;;;;;;4995298;28;20033;-77
2022/06/09 07:53:35;;;;;;;1.63;1.00;;;;;;;;;;5013183;28;20022;-76
2022/06/09 07:56:04;;;;;;;3.90;1.00;;;;;;;;;;5012914;28;20030;-76
2022/06/09 07:58:30;;;;;;;3.38;1.10;;;;;;;;;;4995182;28;20272;-77
2022/06/09 08:00:55;;;;;;;2.90;1.00;;;;;;;;;;5012929;28;20028;-76
2022/06/09 08:03:24;;;;;;;4.10;1.00;;;;;;;;;;4995079;28;20034;-75
2022/06/09 08:05:49;;;;;;;3.08;0.90;;;;;;;;;;4995731;28;20121;-76
2022/06/09 08:08:15;;;;;;;1.42;0.98;;;;;;;;;;5013065;28;20058;-76
2022/06/09 08:10:41;;;;;;;2.20;1.00;;;;;;;;;;4995229;28;20088;-75
2022/06/09 08:13:07;;;;;;;2.13;1.25;;;;;;;;;;5012778;28;20021;-75
2022/06/09 08:15:33;;;;;;;2.15;1.10;;;;;;;;;;5013219;28;20030;-76
2022/06/09 08:17:59;;;;;;;1.67;1.10;;;;;;;;;;4995142;28;20037;-76
2022/06/09 08:20:26;;;;;;;2.35;1.10;;;;;;;;;;5013158;28;20030;-76
2022/06/09 08:22:52;;;;;;;2.28;1.20;;;;;;;;;;4995715;28;20053;-75
2022/06/09 08:25:19;;;;;;;2.10;1.20;;;;;;;;;;5013058;28;20041;-76
2022/06/09 08:27:47;;;;;;;2.80;1.20;;;;;;;;;;5014333;28;20021;-75
2022/06/09 08:30:14;;;;;;;2.40;1.10;;;;;;;;;;5016716;28;20026;-76
2022/06/09 08:32:39;;;;;;;2.45;1.10;;;;;;;;;;5016445;28;20081;-74
2022/06/09 08:35:09;;;;;;;2.50;1.40;;;;;;;;;;5016727;28;20071;-74
2022/06/09 08:37:34;;;;;;;1.88;1.13;;;;;;;;;;5016601;28;20033;-75
2022/06/09 08:40:00;;;;;;;1.90;1.10;;;;;;;;;;5029167;28;20030;-80
2022/06/09 08:42:39;;;;;;;2.40;1.20;;;;;;;;;;5026499;28;20037;-76
2022/06/09 08:45:10;;;;;;;4.53;1.70;;;;;;;;;;5026464;28;20018;-76
2022/06/09 08:48:00;;;;;;;1.63;1.27;;;;;;;;;;5023085;28;20022;-76
2022/06/09 08:50:40;;;;;;;2.92;2.05;;;;;;;;;;5016704;28;20056;-76
2022/06/09 08:53:13;;;;;;;1.20;1.10;;;;;;;;;;5020876;28;20029;-76
2022/06/09 08:55:49;;;;;;;2.97;1.80;;;;;;;;;;5020958;28;20074;-76
2022/06/09 08:58:34;;;;;;;1.83;1.20;;;;;;;;;;5023400;28;20037;-75
2022/06/09 09:01:19;;;;;;;2.05;1.30;;;;;;;;;;5025480;28;20080;-76
2022/06/09 09:04:12;;;;;;;1.88;1.23;;;;;;;;;;5000915;28;20047;-77
2022/06/09 09:06:37;;;;;;;1.38;1.13;;;;;;;;;;5016126;28;20113;-76
2022/06/09 09:09:22;;;;;;;1.37;1.27;;;;;;;;;;5015602;28;20053;-75
2022/06/09 09:11:56;;;;;;;6.95;1.35;;;;;;;;;;5017042;28;20487;-77
2022/06/09 09:14:29;;;;;;;1.60;1.20;;;;;;;;;;5015841;28;20034;-74
2022/06/09 09:17:13;;;;;;;1.52;1.30;;;;;;;;;;5016350;28;20102;-78
2022/06/09 09:19:52;;;;;;;2.50;1.45;;;;;;;;;;5016617;28;20045;-77
2022/06/09 09:22:27;;;;;;;3.85;1.63;;;;;;;;;;5015247;28;20034;-78
2022/06/09 09:25:03;;;;;;;2.47;1.55;;;;;;;;;;5016437;28;20087;-79
2022/06/09 09:27:34;;;;;;;2.08;1.50;;;;;;;;;;5017743;28;20102;-79
2022/06/09 09:30:12;;;;;;;2.25;1.58;;;;;;;;;;5015249;28;20503;-76
2022/06/09 09:32:48;;;;;;;1.88;1.70;;;;;;;;;;5015052;28;20038;-76
2022/06/09 09:35:40;;;;;;;4.57;1.50;;;;;;;;;;5015367;28;20022;-76
2022/06/09 09:38:07;;;;;;;2.17;1.90;;;;;;;;;;4997342;28;20030;-77
2022/06/09 09:40:46;;;;;;;2.75;1.77;;;;;;;;;;5014856;28;20111;-77
2022/06/09 09:43:14;;;;;;;2.17;1.50;;;;;;;;;;5014804;28;20380;-75
2022/06/09 09:45:42;;;;;;;4.72;1.80;;;;;;;;;;5014942;28;20026;-76
2022/06/09 09:48:17;;;;;;;6.32;1.70;;;;;;;;;;5014795;28;20022;-77
2022/06/09 09:51:05;;;;;;;1.88;1.60;;;;;;;;;;5014620;28;20100;-76
2022/06/09 09:53:39;;;;;;;5.00;1.70;;;;;;;;;;5014369;28;20052;-77
2022/06/09 09:56:16;;;;;;;2.78;1.60;;;;;;;;;;5014618;28;20038;-77
2022/06/09 09:58:47;;;;;;;2.67;1.80;;;;;;;;;;5014794;28;20037;-77
2022/06/09 10:01:22;;;;;;;1.95;1.75;;;;;;;;;;5014317;28;20026;-77
2022/06/09 10:10:16;;;;;;;2.25;1.70;;;;;;;;;;5014551;28;20133;-77
2022/06/09 10:12:44;;;;;;;3.90;1.70;;;;;;;;;;5013977;28;20080;-76
2022/06/09 10:15:09;;;;;;;2.95;1.85;;;;;;;;;;5014219;28;20270;-77
2022/06/09 10:17:44;;;;;;;1.95;1.60;;;;;;;;;;5014116;28;20026;-76
2022/06/09 10:20:31;;;;;;;2.13;1.92;;;;;;;;;;4996622;28;20030;-76
2022/06/09 10:23:15;;;;;;;4.70;2.05;;;;;;;;;;5013974;28;20072;-77
2022/06/09 10:25:50;;;;;;;4.30;2.08;;;;;;;;;;4996484;28;20032;-76
2022/06/09 10:28:45;;;;;;;3.25;2.30;;;;;;;;;;4996434;28;20040;-77
2022/06/09 10:31:20;;;;;;;2.40;1.98;;;;;;;;;;4996456;28;20064;-76
2022/06/09 10:33:58;;;;;;;3.50;2.22;;;;;;;;;;5013844;28;20037;-77
2022/06/09 10:36:45;;;;;;;2.65;2.10;;;;;;;;;;4996316;28;20498;-78
2022/06/09 10:39:22;;;;;;;2.65;2.10;;;;;;;;;;5014047;28;20468;-77
2022/06/09 10:41:53;;;;;;;6.03;2.25;;;;;;;;;;5014100;28;20084;-77
2022/06/09 10:44:32;;;;;;;3.40;2.40;;;;;;;;;;5013707;28;20021;-76
2022/06/09 10:56:04;;;;;;;4.07;2.40;;;;;;;;;;5013713;28;20076;-76
2022/06/09 10:58:37;;;;;;;2.83;2.38;;;;;;;;;;5013626;28;20045;-77
2022/06/09 11:01:03;;;;;;;2.80;2.20;;;;;;;;;;5013471;28;20033;-77
2022/06/09 11:03:40;;;;;;;4.90;2.45;;;;;;;;;;4995711;28;20029;-77
2022/06/09 11:06:27;;;;;;;2.70;2.35;;;;;;;;;;4995778;28;20037;-78
2022/06/09 11:09:14;;;;;;;3.13;2.50;;;;;;;;;;5013618;28;20025;-75
2022/06/09 11:11:52;;;;;;;3.72;2.25;;;;;;;;;;4995667;28;20137;-77
2022/06/09 11:14:40;;;;;;;3.50;2.53;;;;;;;;;;5013628;28;20018;-76
2022/06/09 11:17:32;;;;;;;4.10;2.67;;;;;;;;;;5013144;28;20041;-76
2022/06/09 11:20:17;;;;;;;3.50;2.40;;;;;;;;;;4995859;28;20084;-77
2022/06/09 11:22:59;;;;;;;4.57;2.63;;;;;;;;;;5013878;28;20038;-77
2022/06/09 11:25:51;;;;;;;3.40;3.10;;;;;;;;;;4995686;28;20109;-76
2022/06/09 11:28:31;;;;;;;5.55;3.20;;;;;;;;;;5013546;28;20026;-75
2022/06/09 11:31:30;;;;;;;5.15;2.95;;;;;;;;;;5013382;28;20037;-75
2022/06/09 11:34:20;;;;;;;7.38;3.25;;;;;;;;;;5013179;28;20061;-76
2022/06/09 11:37:01;;;;;;;7.88;3.15;;;;;;;;;;5013231;28;20026;-77
2022/06/09 11:40:14;;;;;;;4.95;3.13;;;;;;;;;;5012983;28;20049;-77
2022/06/09 11:43:11;;;;;;;6.88;3.42;;;;;;;;;;4978512;28;20130;-77
2022/06/09 11:45:45;;;;;;;4.82;3.30;;;;;;;;;;5013183;28;20026;-75
2022/06/09 11:48:35;;;;;;;4.60;3.15;;;;;;;;;;5013244;28;20022;-76
2022/06/09 11:51:03;;;;;;;6.53;3.20;;;;;;;;;;5013074;28;20030;-76
2022/06/09 11:53:35;;;;;;;4.35;3.08;;;;;;;;;;5012838;28;20030;-76
2022/06/09 11:56:36;;;;;;;5.85;3.03;;;;;;;;;;5013098;28;20022;-77
2022/06/09 11:59:16;;;;;;;3.60;2.92;;;;;;;;;;4995154;28;20034;-76
2022/06/09 12:01:55;;;;;;;5.88;2.92;;;;;;;;;;4995158;28;20502;-76
2022/06/09 12:04:54;;;;;;;4.35;2.70;;;;;;;;;;5016628;28;20048;-76
2022/06/09 12:07:38;;;;;;;5.50;2.88;;;;;;;;;;5016670;28;20022;-76
2022/06/09 12:10:42;;;;;;;5.93;3.08;;;;;;;;;;5016577;28;20025;-77
2022/06/09 12:13:22;;;;;;;4.05;2.67;;;;;;;;;;5016364;28;20018;-76
2022/06/09 12:16:05;;;;;;;4.88;2.60;;;;;;;;;;5016392;28;20025;-75
2022/06/09 12:18:38;;;;;;;5.40;3.03;;;;;;;;;;5016671;28;20022;-76
2022/06/09 12:21:09;;;;;;;8.38;3.10;;;;;;;;;;5016671;28;20030;-76
2022/06/09 12:23:36;;;;;;;4.10;2.90;;;;;;;;;;5016099;28;20022;-76
2022/06/09 12:26:11;;;;;;;7.45;2.75;;;;;;;;;;5016297;28;20021;-77
2022/06/09 12:28:44;;;;;;;9.45;3.00;;;;;;;;;;5016456;28;20075;-76
2022/06/09 12:31:13;;;;;;;4.28;2.70;;;;;;;;;;5015872;28;20032;-75
2022/06/09 12:33:47;;;;;;;4.20;2.40;;;;;;;;;;5015701;28;20029;-76
2022/06/09 12:36:32;;;;;;;3.80;2.30;;;;;;;;;;5016193;28;20481;-77
2022/06/09 12:38:58;;;;;;;6.20;2.80;;;;;;;;;;5015997;28;20029;-77
2022/06/09 12:41:27;;;;;;;2.67;2.47;;;;;;;;;;5015964;28;20076;-77
2022/06/09 12:44:19;;;;;;;5.90;2.63;;;;;;;;;;5016141;28;20025;-77
2022/06/09 12:46:54;;;;;;;5.72;2.90;;;;;;;;;;5015939;28;20044;-76
2022/06/09 12:49:33;;;;;;;3.83;2.38;;;;;;;;;;4999043;28;20080;-77
2022/06/09 12:51:59;;;;;;;4.75;2.40;;;;;;;;;;5015827;28;20121;-75
2022/06/09 12:54:34;;;;;;;3.42;2.50;;;;;;;;;;5015760;28;20061;-75
2022/06/09 12:57:07;;;;;;;7.43;2.90;;;;;;;;;;4998157;28;20514;-76
2022/06/09 12:59:39;;;;;;;7.00;2.35;;;;;;;;;;5015733;28;20040;-75
2022/06/09 13:02:13;;;;;;;3.30;2.17;;;;;;;;;;5015611;28;20040;-76
2022/06/09 13:04:54;;;;;;;4.05;2.50;;;;;;;;;;4997877;28;20022;-76
2022/06/09 13:07:27;;;;;;;6.38;2.90;;;;;;;;;;5015499;28;20549;-77
2022/06/09 13:10:08;;;;;;;4.53;2.30;;;;;;;;;;4998219;28;20034;-76
2022/06/09 13:12:53;;;;;;;6.43;2.95;;;;;;;;;;4997969;28;20436;-76
2022/06/09 13:15:29;;;;;;;6.68;2.72;;;;;;;;;;5015285;28;20022;-77
2022/06/09 13:17:54;;;;;;;6.07;2.90;;;;;;;;;;5015303;28;20038;-77
2022/06/09 13:20:23;;;;;;;3.97;2.60;;;;;;;;;;4997879;28;20018;-78
2022/06/09 13:22:49;;;;;;;8.55;2.70;;;;;;;;;;4998167;28;20092;-77
2022/06/09 13:25:19;;;;;;;10.80;2.92;;;;;;;;;;5015303;28;20487;-76
2022/06/09 13:27:45;;;;;;;4.15;2.53;;;;;;;;;;5015440;28;20018;-77
2022/06/09 13:30:49;;;;;;;6.00;3.00;;;;;;;;;;5015508;28;20026;-76
2022/06/09 13:33:36;;;;;;;5.97;2.63;;;;;;;;;;5014864;28;20113;-76
2022/06/09 13:36:20;;;;;;;6.80;2.60;;;;;;;;;;5015320;28;20487;-76
2022/06/09 13:38:47;;;;;;;5.00;3.05;;;;;;;;;;4997343;28;20041;-76
2022/06/09 13:41:19;;;;;;;4.18;3.00;;;;;;;;;;4997082;28;20123;-77
2022/06/09 13:43:53;;;;;;;4.68;2.83;;;;;;;;;;5014988;28;20069;-77
2022/06/09 13:46:23;;;;;;;5.13;3.03;;;;;;;;;;5015266;28;20104;-77
2022/06/09 13:48:56;;;;;;;5.50;2.97;;;;;;;;;;4997600;28;20080;-77
2022/06/09 13:51:24;;;;;;;5.00;3.00;;;;;;;;;;4997134;28;20514;-76
2022/06/09 13:54:17;;;;;;;10.77;3.03;;;;;;;;;;4996944;28;20025;-76
2022/06/09 13:56:45;;;;;;;5.93;3.05;;;;;;;;;;5014639;28;20075;-77
2022/06/09 13:59:10;;;;;;;6.35;3.30;;;;;;;;;;4996999;28;20132;-76
2022/06/09 14:01:36;;;;;;;7.10;3.00;;;;;;;;;;5014889;28;20053;-77
2022/06/09 14:04:07;;;;;;;10.77;3.50;;;;;;;;;;5014848;28;20038;-77
2022/06/09 14:06:33;;;;;;;8.20;3.20;;;;;;;;;;5014805;28;20037;-77
2022/06/09 14:08:58;;;;;;;8.43;3.30;;;;;;;;;;5014467;28;20024;-77
2022/06/09 14:11:29;;;;;;;7.82;3.60;;;;;;;;;;5014467;28;20546;-76
2022/06/09 14:13:55;;;;;;;7.68;2.88;;;;;;;;;;4996921;28;20025;-76
2022/06/09 14:16:32;;;;;;;7.63;3.33;;;;;;;;;;5014446;28;20037;-76
2022/06/09 14:18:58;;;;;;;4.10;2.60;;;;;;;;;;5015044;28;20114;-76
2022/06/09 14:21:23;;;;;;;5.15;3.20;;;;;;;;;;5014285;28;20463;-76
2022/06/09 14:23:50;;;;;;;7.20;3.17;;;;;;;;;;5013959;28;20026;-77
2022/06/09 14:26:21;;;;;;;4.72;3.22;;;;;;;;;;5013518;28;20369;-76
2022/06/09 14:28:49;;;;;;;4.80;2.92;;;;;;;;;;5014419;28;20014;-76
2022/06/09 14:31:16;;;;;;;5.40;2.80;;;;;;;;;;5013924;28;20033;-78
2022/06/09 14:33:42;;;;;;;4.78;2.70;;;;;;;;;;5013711;28;20384;-77
2022/06/09 14:36:09;;;;;;;6.45;2.78;;;;;;;;;;5013798;28;20045;-76
2022/06/09 14:38:34;;;;;;;4.93;2.67;;;;;;;;;;5013676;28;20399;-77
2022/06/09 14:41:00;;;;;;;4.73;2.70;;;;;;;;;;4996028;28;20022;-75
2022/06/09 14:43:25;;;;;;;9.98;5.20;;;;;;;;;;5013862;28;20736;-77
2022/06/09 14:45:56;;;;;;;3.38;2.70;;;;;;;;;;4996110;28;20128;-77
2022/06/09 14:48:23;;;;;;;4.57;2.92;;;;;;;;;;5013891;28;20048;-76
2022/06/09 14:50:52;;;;;;;5.28;2.50;;;;;;;;;;5013692;28;20097;-77
2022/06/09 14:53:19;;;;;;;4.80;2.92;;;;;;;;;;5013473;28;20029;-77
2022/06/09 14:55:46;;;;;;;6.18;3.03;;;;;;;;;;5013542;28;20583;-77
2022/06/09 14:58:14;;;;;;;6.25;2.78;;;;;;;;;;5013441;28;20045;-77
2022/06/09 15:00:40;;;;;;;4.05;2.60;;;;;;;;;;5013787;28;20034;-76
2022/06/09 15:03:05;;;;;;;5.72;2.97;;;;;;;;;;5013415;28;20025;-77
2022/06/09 15:05:31;;;;;;;4.57;2.47;;;;;;;;;;5013418;28;20022;-77
2022/06/09 15:07:56;;;;;;;2.85;1.80;;;;;;;;;;5013334;28;20030;-77
2022/06/09 15:10:29;;;;;;;3.00;1.77;;;;;;;;;;5013300;28;20026;-76
2022/06/09 15:12:55;;;;;;;2.75;1.77;;;;;;;;;;4995703;28;20266;-76
2022/06/09 15:15:22;;;;;;;4.50;1.75;;;;;;;;;;5013466;28;20030;-77
2022/06/09 15:17:48;;;;;;;3.95;2.00;;;;;;;;;;5013228;28;20056;-76
2022/06/09 15:20:30;;;;;;;3.17;1.70;;;;;;;;;;5013570;28;20103;-76
2022/06/09 15:22:56;;;;;;;3.30;1.90;;;;;;;;;;5013533;28;20022;-75
2022/06/09 15:25:22;;;;;;;2.97;1.75;;;;;;;;;;5013548;28;20040;-76
2022/06/09 15:27:48;;;;;;;7.18;1.70;;;;;;;;;;5013253;28;20026;-77